createdAt,value
2024-05-09T00:00:41.397Z,102397.34
2024-05-09T00:03:10.711Z,102367.09
2024-05-09T00:05:41.223Z,102392.78
2024-05-09T00:08:10.163Z,102380.41
2024-05-09T00:10:39.381Z,102378.06
2024-05-09T00:13:08.541Z,102388.41
2024-05-09T00:15:36.540Z,102375.53
2024-05-09T00:18:05.375Z,102359.13
2024-05-09T00:20:38.624Z,102364.88
2024-05-09T00:23:10.560Z,102370.47
2024-05-09T00:25:39.049Z,102345.28
2024-05-09T00:28:06.736Z,102389.78
2024-05-09T00:30:36.302Z,102369.63
2024-05-09T00:33:06.989Z,102364.03
2024-05-09T00:35:35.895Z,102348.31
2024-05-09T00:38:03.851Z,102320.75
2024-05-09T00:40:43.172Z,102350.34
2024-05-09T00:43:13.142Z,102361.69
2024-05-09T00:45:41.399Z,102365.25
2024-05-09T00:48:11.683Z,102319.75
2024-05-09T00:50:42.800Z,102346.31
2024-05-09T00:53:16.026Z,102345.63
2024-05-09T00:55:44.497Z,102317.53
2024-05-09T00:58:16.675Z,102322.28
2024-05-09T01:00:44.454Z,102319.91
2024-05-09T01:03:13.660Z,102315.69
2024-05-09T01:05:42.867Z,102300.31
2024-05-09T01:08:11.518Z,102318.41
2024-05-09T01:10:40.825Z,102302.84
2024-05-09T01:13:10.200Z,102291.00
2024-05-09T01:15:37.461Z,102298.97
2024-05-09T01:18:11.809Z,102313.69
2024-05-09T01:20:43.231Z,102311.78
2024-05-09T01:23:14.169Z,102302.00
2024-05-09T01:25:43.319Z,102316.72
2024-05-09T01:28:10.667Z,102316.88
2024-05-09T01:30:38.604Z,102307.38
2024-05-09T01:33:08.791Z,102282.69
2024-05-09T01:35:38.915Z,102326.69
2024-05-09T01:38:07.945Z,102314.66
2024-05-09T01:40:38.710Z,102301.97
2024-05-09T01:43:11.649Z,102322.78
2024-05-09T01:45:40.359Z,102345.75
2024-05-09T01:48:08.731Z,102353.84
2024-05-09T01:50:40.149Z,102340.31
2024-05-09T01:53:10.978Z,102353.00
2024-05-09T01:55:38.683Z,102350.94
2024-05-09T01:58:05.945Z,102363.47
2024-05-09T02:00:39.334Z,102365.16
2024-05-09T02:03:12.330Z,102347.03
2024-05-09T02:05:43.457Z,102342.50
2024-05-09T02:08:15.244Z,102347.06
2024-05-09T02:10:44.105Z,102352.66
2024-05-09T02:13:11.596Z,102352.81
2024-05-09T02:15:38.801Z,102349.91
2024-05-09T02:18:06.463Z,102340.09
2024-05-09T02:20:36.505Z,102353.28
2024-05-09T02:23:06.412Z,102352.63
2024-05-09T02:25:34.442Z,102334.69
2024-05-09T02:28:01.880Z,102351.22
2024-05-09T02:30:38.277Z,102348.19
2024-05-09T02:33:09.857Z,102336.69
2024-05-09T02:35:38.950Z,102337.03
2024-05-09T02:38:07.117Z,102328.94
2024-05-09T02:40:37.974Z,102326.94
2024-05-09T02:43:07.898Z,102332.97
2024-05-09T02:45:35.739Z,102348.16
2024-05-09T02:48:03.215Z,102347.16
2024-05-09T02:50:37.766Z,102340.22
2024-05-09T02:53:08.248Z,102347.50
2024-05-09T02:55:36.003Z,102334.84
2024-05-09T02:58:03.234Z,102318.25
2024-05-09T03:00:38.238Z,102344.94
2024-05-09T03:03:10.134Z,102338.69
2024-05-09T03:05:39.767Z,102338.69
2024-05-09T03:08:07.593Z,102330.91
2024-05-09T03:10:37.143Z,102338.69
2024-05-09T03:13:11.910Z,102327.03
2024-05-09T03:15:40.034Z,102329.78
2024-05-09T03:18:07.628Z,102332.59
2024-05-09T03:20:36.310Z,102346.72
2024-05-09T03:23:05.569Z,102339.28
2024-05-09T03:25:33.283Z,102332.19
2024-05-09T03:28:00.691Z,102337.63
2024-05-09T03:30:38.914Z,102320.88
2024-05-09T03:33:20.159Z,102332.53
2024-05-09T03:35:49.636Z,102312.91
2024-05-09T03:38:17.391Z,102333.91
2024-05-09T03:40:51.209Z,102330.16
2024-05-09T03:43:19.670Z,102336.91
2024-05-09T03:45:48.461Z,102328.81
2024-05-09T03:48:15.952Z,102319.06
2024-05-09T03:50:43.589Z,102320.06
2024-05-09T03:53:14.226Z,102333.50
2024-05-09T03:55:41.830Z,102346.16
2024-05-09T03:58:09.469Z,102348.00
2024-05-09T04:00:39.410Z,102334.53
2024-05-09T04:03:10.369Z,102346.50
2024-05-09T04:05:40.880Z,102326.06
2024-05-09T04:08:10.002Z,102327.44
2024-05-09T04:10:37.552Z,102331.78
2024-05-09T04:13:04.906Z,102345.66
2024-05-09T04:15:32.494Z,102342.47
2024-05-09T04:18:00.349Z,102336.75
2024-05-09T04:20:36.309Z,102336.88
2024-05-09T04:23:08.142Z,102339.59
2024-05-09T04:25:36.329Z,102305.25
2024-05-09T04:28:03.842Z,102354.44
2024-05-09T04:30:37.644Z,102357.00
2024-05-09T04:33:09.404Z,102351.78
2024-05-09T04:35:38.967Z,102344.38
2024-05-09T04:38:06.627Z,102340.66
2024-05-09T04:40:36.489Z,102346.25
2024-05-09T04:43:05.924Z,102351.16
2024-05-09T04:45:33.561Z,102338.34
2024-05-09T04:48:01.429Z,102330.78
2024-05-09T04:50:35.743Z,102331.47
2024-05-09T04:53:07.011Z,102328.28
2024-05-09T04:55:35.107Z,102328.94
2024-05-09T04:58:07.458Z,102336.72
2024-05-09T05:00:37.295Z,102347.84
2024-05-09T05:03:08.736Z,102348.03
2024-05-09T05:05:41.758Z,102336.75
2024-05-09T05:08:16.869Z,102321.03
2024-05-09T05:10:46.446Z,102331.69
2024-05-09T05:13:20.784Z,102327.00
2024-05-09T05:15:50.787Z,102325.31
2024-05-09T05:18:18.992Z,102327.69
2024-05-09T05:20:46.588Z,102323.97
2024-05-09T05:23:15.602Z,102316.88
2024-05-09T05:25:43.445Z,102318.19
2024-05-09T05:28:11.252Z,102325.25
2024-05-09T05:30:39.176Z,102323.03
2024-05-09T05:33:07.627Z,102333.13
2024-05-09T05:35:35.636Z,102337.31
2024-05-09T05:38:03.936Z,102357.41
2024-05-09T05:40:36.659Z,102336.06
2024-05-09T05:43:09.246Z,102346.22
2024-05-09T05:45:36.855Z,102374.22
2024-05-09T05:48:06.376Z,102394.56
2024-05-09T05:50:37.301Z,102399.72
2024-05-09T05:53:10.295Z,102410.22
2024-05-09T05:55:41.261Z,102398.66
2024-05-09T05:58:12.699Z,102385.34
2024-05-09T06:00:41.806Z,102382.16
2024-05-09T06:03:10.830Z,102395.91
2024-05-09T06:05:45.894Z,102408.69
2024-05-09T06:08:13.601Z,102403.84
2024-05-09T06:10:41.840Z,102413.47
2024-05-09T06:13:13.437Z,102426.34
2024-05-09T06:15:41.653Z,102442.09
2024-05-09T06:18:10.974Z,102460.97
2024-05-09T06:20:40.421Z,102484.03
2024-05-09T06:23:10.075Z,102492.75
2024-05-09T06:25:38.184Z,102494.94
2024-05-09T06:28:05.848Z,102508.63
2024-05-09T06:33:03.541Z,102505.97
2024-05-09T06:35:31.188Z,102517.13
2024-05-09T06:37:58.739Z,102532.09
2024-05-09T06:40:34.430Z,102523.88
2024-05-09T06:43:05.485Z,102525.66
2024-05-09T06:45:32.736Z,102540.16
2024-05-09T06:48:00.440Z,102530.75
2024-05-09T06:50:35.631Z,102558.91
2024-05-09T06:53:05.603Z,102579.16
2024-05-09T06:55:33.039Z,102547.75
2024-05-09T06:58:00.469Z,102589.69
2024-05-09T07:00:35.453Z,102601.16
2024-05-09T07:03:11.032Z,102661.69
2024-05-09T07:05:39.455Z,102739.72
2024-05-09T07:08:07.469Z,102755.72
2024-05-09T07:10:36.446Z,102805.94
2024-05-09T07:13:09.723Z,102823.34
2024-05-09T07:15:37.084Z,102823.50
2024-05-09T07:18:21.286Z,102833.44
2024-05-09T07:20:49.873Z,102867.81
2024-05-09T07:23:18.337Z,102871.69
2024-05-09T07:25:46.168Z,102932.06
2024-05-09T07:28:19.361Z,102941.63
2024-05-09T07:30:47.210Z,102943.13
2024-05-09T07:33:18.960Z,102925.75
2024-05-09T07:35:46.643Z,102933.25
2024-05-09T07:38:17.428Z,102933.31
2024-05-09T07:43:30.530Z,102922.88
2024-05-09T07:46:00.935Z,102950.03
2024-05-09T07:53:49.712Z,102933.78
2024-05-09T07:56:22.384Z,102956.81
2024-05-09T07:58:52.851Z,102971.13
2024-05-09T08:01:21.062Z,102977.47
2024-05-09T08:03:48.720Z,102961.16
2024-05-09T08:06:16.471Z,102924.13
2024-05-09T08:08:43.690Z,102940.63
2024-05-09T08:11:10.958Z,102931.09
2024-05-09T08:13:38.457Z,102949.13
2024-05-09T08:16:06.247Z,102962.78
2024-05-09T08:18:33.869Z,102986.75
2024-05-09T08:21:01.557Z,103004.09
2024-05-09T08:23:28.950Z,103014.91
2024-05-09T08:25:56.429Z,103020.78
2024-05-09T08:28:23.747Z,103025.78
2024-05-09T08:30:51.081Z,102998.84
2024-05-09T08:33:18.723Z,102957.00
2024-05-09T08:35:46.248Z,102945.19
2024-05-09T08:38:13.739Z,102936.25
2024-05-09T08:40:42.382Z,102928.44
2024-05-09T08:43:12.153Z,102935.88
2024-05-09T08:45:45.213Z,102938.78
2024-05-09T08:48:15.646Z,102949.19
2024-05-09T08:50:45.235Z,102949.53
2024-05-09T08:53:15.302Z,102957.59
2024-05-09T08:55:44.325Z,102940.94
2024-05-09T08:58:20.396Z,102967.72
2024-05-09T09:00:49.485Z,102968.69
2024-05-09T09:03:25.382Z,102963.06
2024-05-09T09:06:10.951Z,102982.91
2024-05-09T09:08:40.388Z,102981.97
2024-05-09T09:11:07.738Z,102966.41
2024-05-09T09:13:34.973Z,102985.91
2024-05-09T09:16:03.145Z,102990.91
2024-05-09T09:18:31.294Z,102992.97
2024-05-09T09:20:59.166Z,102955.38
2024-05-09T09:23:30.642Z,102971.31
2024-05-09T09:26:01.693Z,102969.25
2024-05-09T09:28:29.893Z,102958.84
2024-05-09T09:31:04.801Z,102963.16
2024-05-09T09:33:33.088Z,102951.38
2024-05-09T09:36:02.939Z,102945.66
2024-05-09T09:38:32.613Z,102937.50
2024-05-09T09:41:01.994Z,102943.44
2024-05-09T09:43:30.231Z,102952.66
2024-05-09T09:46:00.122Z,102945.81
2024-05-09T09:48:31.359Z,102940.38
2024-05-09T09:50:58.729Z,102943.06
2024-05-09T09:53:28.652Z,102920.72
2024-05-09T09:55:59.224Z,102929.84
2024-05-09T09:58:27.777Z,102919.69
2024-05-09T10:00:55.288Z,102891.59
2024-05-09T10:03:22.897Z,102905.44
2024-05-09T10:05:50.766Z,102912.19
2024-05-09T10:08:19.793Z,102911.25
2024-05-09T10:10:48.098Z,102908.28
2024-05-09T10:13:16.535Z,102907.16
2024-05-09T10:15:48.535Z,102908.09
2024-05-09T10:18:16.514Z,102910.91
2024-05-09T10:20:54.694Z,102883.91
2024-05-09T10:23:33.428Z,102779.88
2024-05-09T10:26:03.623Z,102796.25
2024-05-09T10:28:36.911Z,102894.75
2024-05-09T10:31:16.011Z,102904.09
2024-05-09T10:33:52.579Z,102891.00
2024-05-09T10:36:25.407Z,102905.00
2024-05-09T10:38:54.188Z,102894.91
2024-05-09T10:41:22.735Z,102881.56
2024-05-09T10:43:51.624Z,102864.97
2024-05-09T10:46:19.387Z,102882.34
2024-05-09T10:48:48.641Z,102860.03
2024-05-09T10:51:19.757Z,102874.94
2024-05-09T10:53:48.624Z,102870.59
2024-05-09T10:56:17.011Z,102870.34
2024-05-09T10:58:45.126Z,102859.34
2024-05-09T11:01:14.970Z,102845.88
2024-05-09T11:03:47.554Z,102819.97
2024-05-09T11:06:18.969Z,102847.22
2024-05-09T11:08:47.383Z,102845.66
2024-05-09T11:11:14.948Z,102827.81
2024-05-09T11:13:42.382Z,102839.63
2024-05-09T11:16:20.848Z,102849.34
2024-05-09T11:18:58.261Z,102836.41
2024-05-09T11:21:26.116Z,102835.88
2024-05-09T11:23:53.719Z,102846.47
2024-05-09T11:26:22.319Z,102853.56
2024-05-09T11:28:50.821Z,102842.38
2024-05-09T11:31:18.594Z,102856.63
2024-05-09T11:33:46.768Z,102858.28
2024-05-09T11:36:14.598Z,102836.09
2024-05-09T11:38:41.994Z,102795.22
2024-05-09T11:41:09.312Z,102834.28
2024-05-09T11:43:36.507Z,102841.31
2024-05-09T11:46:04.244Z,102848.94
2024-05-09T11:48:32.384Z,102837.03
2024-05-09T11:51:00.079Z,102833.03
2024-05-09T11:53:27.306Z,102829.91
2024-05-09T11:55:54.692Z,102828.84
2024-05-09T11:58:23.005Z,102816.31
2024-05-09T12:00:50.606Z,102825.34
2024-05-09T12:03:18.009Z,102817.28
2024-05-09T12:05:45.561Z,102810.25
2024-05-09T12:08:13.033Z,102810.47
2024-05-09T12:10:40.788Z,102821.09
2024-05-09T12:13:08.304Z,102803.88
2024-05-09T12:15:38.156Z,102790.03
2024-05-09T12:18:07.623Z,102819.13
2024-05-09T12:20:38.733Z,102801.31
2024-05-09T12:23:10.104Z,102800.22
2024-05-09T12:25:39.479Z,102799.88
2024-05-09T12:28:08.119Z,102803.59
2024-05-09T12:30:40.036Z,102809.50
2024-05-09T12:33:10.034Z,102797.75
2024-05-09T12:35:38.314Z,102788.00
2024-05-09T12:38:05.679Z,102795.28
2024-05-09T12:40:37.513Z,102784.44
2024-05-09T12:43:10.338Z,102792.84
2024-05-09T12:45:39.076Z,102801.78
2024-05-09T12:48:11.879Z,102804.91
2024-05-09T12:50:40.115Z,102795.84
2024-05-09T12:53:07.466Z,102798.34
2024-05-09T12:55:43.867Z,102794.53
2024-05-09T12:58:17.587Z,102790.31
2024-05-09T13:00:45.792Z,102790.53
2024-05-09T13:03:13.559Z,102798.81
2024-05-09T13:05:41.559Z,102781.09
2024-05-09T13:08:09.479Z,102803.03
2024-05-09T13:10:37.172Z,102799.84
2024-05-09T13:13:04.752Z,102789.91
2024-05-09T13:15:37.445Z,102796.94
2024-05-09T13:18:05.647Z,102796.91
2024-05-09T13:20:35.543Z,102793.69
2024-05-09T13:23:05.763Z,102798.22
2024-05-09T13:25:35.226Z,102804.00
2024-05-09T13:28:03.900Z,102801.94
2024-05-09T13:30:39.203Z,102789.88
2024-05-09T13:33:13.983Z,102774.66
2024-05-09T13:35:48.976Z,102790.78
2024-05-09T13:38:21.486Z,102772.97
2024-05-09T13:40:51.761Z,102784.44
2024-05-09T13:43:19.347Z,102787.31
2024-05-09T13:45:47.048Z,102780.19
2024-05-09T13:48:14.581Z,102760.22
2024-05-09T13:50:42.305Z,102776.47
2024-05-09T13:53:09.758Z,102768.56
2024-05-09T13:55:40.168Z,102769.44
2024-05-09T13:58:08.709Z,102773.28
2024-05-09T14:00:44.955Z,102768.06
2024-05-09T14:03:17.644Z,102761.78
2024-05-09T14:05:47.260Z,102745.25
2024-05-09T14:08:15.730Z,102760.84
2024-05-09T14:10:45.102Z,102745.69
2024-05-09T14:13:13.351Z,102731.41
2024-05-09T14:15:40.991Z,102733.28
2024-05-09T14:18:12.442Z,102735.00
2024-05-09T14:20:41.209Z,102732.16
2024-05-09T14:23:08.557Z,102748.59
2024-05-09T14:25:39.884Z,102728.84
2024-05-09T14:28:09.994Z,102739.91
2024-05-09T14:30:38.606Z,102735.28
2024-05-09T14:33:07.900Z,102706.84
2024-05-09T14:35:37.444Z,102730.22
2024-05-09T14:38:05.261Z,102734.09
2024-05-09T14:40:41.523Z,102718.22
2024-05-09T14:43:15.320Z,102715.38
2024-05-09T14:45:43.861Z,102717.94
2024-05-09T14:48:12.562Z,102699.25
2024-05-09T14:50:40.860Z,102704.19
2024-05-09T14:53:12.680Z,102719.34
2024-05-09T14:55:42.454Z,102708.56
2024-05-09T14:58:12.007Z,102711.03
2024-05-09T15:00:46.108Z,102708.94
2024-05-09T15:03:17.160Z,102699.63
2024-05-09T15:05:45.191Z,102701.22
2024-05-09T15:08:12.671Z,102687.03
2024-05-09T15:10:40.373Z,102687.13
2024-05-09T15:13:09.673Z,102693.38
2024-05-09T15:15:38.614Z,102690.94
2024-05-09T15:18:06.668Z,102686.09
2024-05-09T15:20:36.718Z,102686.28
2024-05-09T15:23:06.968Z,102690.28
2024-05-09T15:25:36.287Z,102678.06
2024-05-09T15:28:07.652Z,102686.56
2024-05-09T15:30:35.564Z,102672.94
2024-05-09T15:33:04.174Z,102661.94
2024-05-09T15:35:32.113Z,102660.56
2024-05-09T15:38:00.358Z,102649.81
2024-05-09T15:40:36.136Z,102641.84
2024-05-09T15:43:08.135Z,102640.63
2024-05-09T15:45:36.104Z,102641.44
2024-05-09T15:48:04.480Z,102654.38
2024-05-09T15:50:37.746Z,102662.69
2024-05-09T15:53:09.227Z,102652.19
2024-05-09T15:55:37.246Z,102624.84
2024-05-09T15:58:05.171Z,102653.25
2024-05-09T16:00:38.599Z,102640.75
2024-05-09T16:03:13.431Z,102647.69
2024-05-09T16:05:44.587Z,102647.97
2024-05-09T16:08:13.215Z,102649.50
2024-05-09T16:10:47.858Z,102644.78
2024-05-09T16:13:16.672Z,102644.34
2024-05-09T16:15:44.921Z,102630.22
2024-05-09T16:18:12.967Z,102637.94
2024-05-09T16:20:42.360Z,102633.88
2024-05-09T16:23:11.365Z,102639.13
2024-05-09T16:25:39.745Z,102632.94
2024-05-09T16:28:10.098Z,102629.16
2024-05-09T16:30:39.835Z,102613.13
2024-05-09T16:33:08.141Z,102604.03
2024-05-09T16:35:36.619Z,102615.03
2024-05-09T16:38:04.402Z,102616.53
2024-05-09T16:40:37.992Z,102581.19
2024-05-09T16:43:09.066Z,102609.88
2024-05-09T16:45:37.808Z,102610.72
2024-05-09T16:48:05.915Z,102612.44
2024-05-09T16:50:35.277Z,102588.03
2024-05-09T16:53:04.867Z,102588.00
2024-05-09T16:55:32.983Z,102591.16
2024-05-09T16:58:00.718Z,102586.72
2024-05-09T17:00:38.318Z,102586.72
2024-05-09T17:03:11.632Z,102598.06
2024-05-09T17:05:39.897Z,102526.50
2024-05-09T17:08:08.442Z,102602.25
2024-05-09T17:10:36.843Z,102593.00
2024-05-09T17:13:06.498Z,102574.25
2024-05-09T17:15:36.065Z,102584.53
2024-05-09T17:18:04.842Z,102605.59
2024-05-09T17:20:35.315Z,102591.28
2024-05-09T17:23:12.378Z,102584.94
2024-05-09T17:25:40.740Z,102590.84
2024-05-09T17:28:09.316Z,102592.59
2024-05-09T17:30:39.773Z,102583.97
2024-05-09T17:33:10.292Z,102590.50
2024-05-09T17:35:38.816Z,102587.31
2024-05-09T17:38:07.000Z,102589.00
2024-05-09T17:40:36.874Z,102575.31
2024-05-09T17:43:08.473Z,102582.13
2024-05-09T17:45:38.539Z,102557.91
2024-05-09T17:48:06.927Z,102562.94
2024-05-09T17:50:36.636Z,102550.53
2024-05-09T17:53:09.277Z,102578.94
2024-05-09T17:55:36.959Z,102570.94
2024-05-09T17:58:05.504Z,102559.53
2024-05-09T18:00:39.099Z,102567.34
2024-05-09T18:03:13.606Z,102547.75
2024-05-09T18:05:43.167Z,102540.97
2024-05-09T18:08:11.725Z,102528.88
2024-05-09T18:10:41.485Z,102525.88
2024-05-09T18:13:09.591Z,102513.16
2024-05-09T18:15:37.271Z,102474.13
2024-05-09T18:18:05.536Z,102470.16
2024-05-09T18:20:41.599Z,102480.03
2024-05-09T18:23:17.558Z,102517.94
2024-05-09T18:25:47.016Z,102490.44
2024-05-09T18:28:15.343Z,102464.09
2024-05-09T18:30:43.203Z,102461.53
2024-05-09T18:33:11.661Z,102474.78
2024-05-09T18:35:39.661Z,102481.53
2024-05-09T18:38:07.056Z,102455.84
2024-05-09T18:40:36.958Z,102477.53
2024-05-09T18:43:08.037Z,102475.78
2024-05-09T18:45:40.102Z,102489.38
2024-05-09T18:48:09.685Z,102484.38
2024-05-09T18:50:40.202Z,102483.97
2024-05-09T18:53:13.407Z,102487.34
2024-05-09T18:55:42.610Z,102492.19
2024-05-09T18:58:10.122Z,102487.25
2024-05-09T19:00:40.073Z,102495.47
2024-05-09T19:03:12.848Z,102506.84
2024-05-09T19:05:45.935Z,102505.16
2024-05-09T19:08:15.060Z,102494.19
2024-05-09T19:10:42.812Z,102505.06
2024-05-09T19:13:12.771Z,102506.94
2024-05-09T19:15:42.790Z,102500.44
2024-05-09T19:18:12.474Z,102496.72
2024-05-09T19:20:40.345Z,102511.03
2024-05-09T19:23:07.813Z,102510.63
2024-05-09T19:25:36.203Z,102500.47
2024-05-09T19:28:04.913Z,102511.19
2024-05-09T19:30:39.304Z,102489.91
2024-05-09T19:33:11.684Z,102491.59
2024-05-09T19:35:40.105Z,102512.03
2024-05-09T19:38:07.482Z,102515.81
2024-05-09T19:40:35.551Z,102495.09
2024-05-09T19:43:04.756Z,102522.22
2024-05-09T19:45:33.913Z,102508.03
2024-05-09T19:48:02.320Z,102508.22
2024-05-09T19:50:37.506Z,102522.31
2024-05-09T19:53:10.691Z,102525.69
2024-05-09T19:55:38.539Z,102523.09
2024-05-09T19:58:07.555Z,102523.84
2024-05-09T20:00:38.804Z,102513.34
2024-05-09T20:03:08.835Z,102494.06
2024-05-09T20:05:37.142Z,102496.22
2024-05-09T20:08:05.480Z,102489.03
2024-05-09T20:10:35.191Z,102491.94
2024-05-09T20:13:05.312Z,102494.38
2024-05-09T20:15:35.613Z,102474.69
2024-05-09T20:18:03.339Z,102485.19
2024-05-09T20:20:37.539Z,102492.31
2024-05-09T20:23:09.188Z,102480.91
2024-05-09T20:25:36.657Z,102450.34
2024-05-09T20:28:04.114Z,102482.84
2024-05-09T20:30:33.395Z,102479.28
2024-05-09T20:33:09.570Z,102468.56
2024-05-09T20:35:37.455Z,102473.44
2024-05-09T20:38:05.095Z,102459.88
2024-05-09T20:40:36.912Z,102452.34
2024-05-09T20:43:07.508Z,102424.28
2024-05-09T20:45:35.290Z,102429.97
2024-05-09T20:48:03.026Z,102425.09
2024-05-09T20:50:38.255Z,102456.97
2024-05-09T20:53:13.752Z,102427.81
2024-05-09T20:55:42.474Z,102432.25
2024-05-09T20:58:10.649Z,102410.72
2024-05-09T21:00:41.713Z,102402.91
2024-05-09T21:03:12.822Z,102402.66
2024-05-09T21:05:41.053Z,102394.06
2024-05-09T21:08:08.974Z,102394.44
2024-05-09T21:10:37.419Z,102397.72
2024-05-09T21:13:06.618Z,102381.72
2024-05-09T21:15:35.614Z,102379.66
2024-05-09T21:18:03.624Z,102365.94
2024-05-09T21:20:33.576Z,102351.84
2024-05-09T21:23:02.456Z,102335.97
2024-05-09T21:25:30.203Z,102315.75
2024-05-09T21:27:58.336Z,102326.50
2024-05-09T21:30:32.768Z,102302.13
2024-05-09T21:33:13.563Z,102317.00
2024-05-09T21:35:43.704Z,102315.22
2024-05-09T21:38:13.451Z,102284.66
2024-05-09T21:40:40.996Z,102284.34
2024-05-09T21:43:08.478Z,102282.13
2024-05-09T21:45:37.161Z,102250.53
2024-05-09T21:48:05.743Z,102228.13
2024-05-09T21:50:39.773Z,102225.41
2024-05-09T21:53:10.130Z,102202.34
2024-05-09T21:55:37.826Z,102171.03
2024-05-09T21:58:05.502Z,102205.47
2024-05-09T22:00:37.704Z,102188.63
2024-05-09T22:03:08.421Z,102173.06
2024-05-09T22:05:37.989Z,102176.34
2024-05-09T22:08:06.126Z,102150.63
2024-05-09T22:10:35.863Z,102163.69
2024-05-09T22:13:05.937Z,102138.03
2024-05-09T22:15:39.476Z,102136.09
2024-05-09T22:18:08.714Z,102143.28
2024-05-09T22:20:39.208Z,102139.41
2024-05-09T22:23:08.469Z,102122.44
2024-05-09T22:25:38.508Z,102118.56
2024-05-09T22:28:06.635Z,102094.16
2024-05-09T22:30:37.952Z,102114.94
2024-05-09T22:33:11.700Z,102097.81
2024-05-09T22:35:41.053Z,102096.41
2024-05-09T22:38:08.998Z,102060.97
2024-05-09T22:40:45.712Z,102035.66
2024-05-09T22:43:24.528Z,102013.19
2024-05-09T22:45:55.935Z,101993.84
2024-05-09T22:48:24.782Z,101987.31
2024-05-09T22:50:52.741Z,101987.56
2024-05-09T22:53:23.704Z,101980.59
2024-05-09T22:55:51.023Z,101965.94
2024-05-09T22:58:19.133Z,101971.97
2024-05-09T23:00:46.730Z,101961.56
2024-05-09T23:03:17.298Z,101942.69
2024-05-09T23:05:45.182Z,101922.09
2024-05-09T23:08:12.442Z,101908.88
2024-05-09T23:10:39.903Z,101885.81
2024-05-09T23:13:08.239Z,101875.25
2024-05-09T23:15:37.375Z,101851.19
2024-05-09T23:18:05.347Z,101871.50
2024-05-09T23:20:37.787Z,101844.00
2024-05-09T23:23:11.879Z,101867.50
2024-05-09T23:25:41.674Z,101860.75
2024-05-09T23:28:09.456Z,101851.69
2024-05-09T23:30:39.922Z,101835.38
2024-05-09T23:33:12.375Z,101849.22
2024-05-09T23:35:42.524Z,101854.88
2024-05-09T23:38:09.854Z,101845.88
2024-05-09T23:40:40.028Z,101826.41
2024-05-09T23:43:10.470Z,101846.47
2024-05-09T23:45:38.325Z,101858.56
2024-05-09T23:48:06.812Z,101853.09
2024-05-09T23:50:37.565Z,101850.59
2024-05-09T23:53:08.669Z,101842.25
2024-05-09T23:55:37.153Z,101842.69
2024-05-09T23:58:04.923Z,101842.16
